Time;durP1;ratioP1;P1;durP2;ratioP2;P2;SDS_P1;SDS_P2;PMS_P1;PMS_P2;Temp;Humidity;BMP_temperature;BMP_pressure;BME280_temperature;BME280_humidity;BME280_pressure;Samples;Min_cycle;Max_cycle;Signal;HPM_P1;HPM_P2
2022/10/27 00:01:52;;;;;;;;;;;23.20;58.80;;;;;;1522557;78;1944;-58
2022/10/27 00:03:54;;;;;;;;;;;23.20;58.80;;;;;;1521345;78;762;-57
2022/10/27 00:05:56;;;;;;;;;;;23.10;58.80;;;;;;1523125;77;1553;-58
2022/10/27 00:07:58;;;;;;;;;;;23.20;58.90;;;;;;1516930;78;776;-57
2022/10/27 00:10:00;;;;;;;;;;;23.20;59.00;;;;;;1515697;76;1008;-59
2022/10/27 00:12:02;;;;;;;;;;;23.20;59.20;;;;;;1513435;76;699;-57
2022/10/27 00:14:04;;;;;;;;;;;23.20;59.20;;;;;;1525269;78;775;-59
2022/10/27 00:16:06;;;;;;;;;;;23.20;59.30;;;;;;1520423;78;1203;-57
2022/10/27 00:18:11;;;;;;;;;;;23.20;59.20;;;;;;1516795;78;745;-58
2022/10/27 00:20:13;;;;;;;;;;;23.20;59.30;;;;;;1503001;78;1542;-57
2022/10/27 00:22:15;;;;;;;;;;;23.10;59.30;;;;;;1561935;74;1928;-59
2022/10/27 00:24:18;;;;;;;;;;;23.10;59.40;;;;;;1563834;75;767;-58
2022/10/27 00:26:20;;;;;;;;;;;23.10;59.50;;;;;;1551345;75;1151;-57
2022/10/27 00:28:22;;;;;;;;;;;23.20;59.40;;;;;;1560205;74;724;-56
2022/10/27 00:30:24;;;;;;;;;;;23.10;59.40;;;;;;1561204;75;782;-58
2022/10/27 00:32:26;;;;;;;;;;;23.10;59.40;;;;;;1545166;75;800;-58
2022/10/27 00:34:28;;;;;;;;;;;23.20;59.40;;;;;;1551207;75;1445;-58
2022/10/27 00:36:30;;;;;;;;;;;23.20;59.50;;;;;;1548049;75;1160;-56
2022/10/27 00:38:32;;;;;;;;;;;23.20;59.50;;;;;;1564226;74;762;-56
2022/10/27 00:40:37;;;;;;;;;;;23.20;59.40;;;;;;1550934;75;756;-58
2022/10/27 00:42:39;;;;;;;;;;;23.20;59.40;;;;;;1555311;74;1923;-58
2022/10/27 00:44:42;;;;;;;;;;;23.20;59.40;;;;;;1548812;75;718;-58
2022/10/27 00:46:44;;;;;;;;;;;23.20;59.30;;;;;;1556683;75;1137;-57
2022/10/27 00:48:46;;;;;;;;;;;23.20;59.40;;;;;;1572633;74;1589;-59
2022/10/27 00:50:47;;;;;;;;;;;23.20;59.40;;;;;;1565278;75;804;-59
2022/10/27 00:52:58;;;;;;;;;;;23.20;59.40;;;;;;1562493;74;801;-58
2022/10/27 00:55:02;;;;;;;;;;;23.10;59.40;;;;;;1561831;75;682;-58
2022/10/27 00:57:04;;;;;;;;;;;23.10;59.50;;;;;;1559493;75;1165;-57
2022/10/27 00:59:06;;;;;;;;;;;23.10;59.60;;;;;;1557818;75;837;-58
2022/10/27 01:01:08;;;;;;;;;;;23.10;59.60;;;;;;1559374;74;783;-59
2022/10/27 01:03:11;;;;;;;;;;;23.10;59.60;;;;;;1568539;75;1924;-58
2022/10/27 01:05:19;;;;;;;;;;;23.10;59.60;;;;;;1567661;75;758;-58
2022/10/27 01:07:21;;;;;;;;;;;23.10;59.70;;;;;;1550718;75;1096;-59
2022/10/27 01:09:23;;;;;;;;;;;23.10;59.60;;;;;;1561602;74;736;-59
2022/10/27 01:11:25;;;;;;;;;;;23.10;59.70;;;;;;1556585;75;1420;-59
2022/10/27 01:13:27;;;;;;;;;;;23.10;59.60;;;;;;1547733;75;777;-57
2022/10/27 01:15:36;;;;;;;;;;;23.10;59.70;;;;;;1547103;76;1196;-59
2022/10/27 01:17:48;;;;;;;;;;;23.10;59.70;;;;;;1560297;76;1555;-59
2022/10/27 01:20:08;;;;;;;;;;;23.20;59.60;;;;;;1561821;76;824;-59
2022/10/27 01:22:12;;;;;;;;;;;23.10;59.60;;;;;;1545912;76;1922;-57
2022/10/27 01:24:32;;;;;;;;;;;23.20;59.50;;;;;;1551976;76;805;-58
2022/10/27 01:26:49;;;;;;;;;;;23.20;59.40;;;;;;1542535;75;1147;-59
2022/10/27 01:29:10;;;;;;;;;;;23.20;59.40;;;;;;1550717;75;762;-58
2022/10/27 01:31:16;;;;;;;;;;;23.10;59.50;;;;;;1550291;74;1582;-58
2022/10/27 01:33:22;;;;;;;;;;;23.10;59.50;;;;;;1560013;75;1935;-58
2022/10/27 01:35:28;;;;;;;;;;;23.20;59.40;;;;;;1550012;75;784;-58
2022/10/27 01:37:41;;;;;;;;;;;23.10;59.40;;;;;;1554330;75;1762;-58
2022/10/27 01:39:44;;;;;;;;;;;23.10;59.50;;;;;;1542450;76;919;-58
2022/10/27 01:41:50;;;;;;;;;;;23.10;59.50;;;;;;1560759;76;809;-58
2022/10/27 01:43:53;;;;;;;;;;;23.10;59.40;;;;;;1552026;75;1941;-58
2022/10/27 01:45:55;;;;;;;;;;;23.10;59.40;;;;;;1556717;76;1711;-58
2022/10/27 01:47:57;;;;;;;;;;;23.10;59.40;;;;;;1555704;75;722;-58
2022/10/27 01:50:00;;;;;;;;;;;23.20;59.30;;;;;;1520707;77;817;-58
2022/10/27 01:52:06;;;;;;;;;;;23.20;59.30;;;;;;1564703;75;770;-58
2022/10/27 01:54:08;;;;;;;;;;;23.30;59.00;;;;;;1540302;76;1528;-58
2022/10/27 01:56:27;;;;;;;;;;;23.20;58.80;;;;;;1561498;76;1177;-58
2022/10/27 01:58:47;;;;;;;;;;;23.30;58.80;;;;;;1550280;75;1543;-59
2022/10/27 02:00:56;;;;;;;;;;;23.30;58.80;;;;;;1558032;76;794;-58
2022/10/27 02:03:06;;;;;;;;;;;23.30;58.80;;;;;;1550279;76;1927;-58
2022/10/27 02:05:11;;;;;;;;;;;23.20;58.80;;;;;;1560397;76;765;-58
2022/10/27 02:07:23;;;;;;;;;;;23.20;58.80;;;;;;1554283;75;1115;-58
2022/10/27 02:09:27;;;;;;;;;;;23.20;59.00;;;;;;1560266;75;711;-58
2022/10/27 02:11:29;;;;;;;;;;;23.20;59.20;;;;;;1542623;76;994;-59
2022/10/27 02:13:31;;;;;;;;;;;23.10;59.40;;;;;;1555834;74;1463;-56
2022/10/27 02:15:34;;;;;;;;;;;23.20;59.40;;;;;;1563535;75;1168;-58
2022/10/27 02:17:37;;;;;;;;;;;23.20;59.50;;;;;;1553110;75;751;-58
2022/10/27 02:19:40;;;;;;;;;;;23.20;59.50;;;;;;1557867;75;772;-58
2022/10/27 02:21:42;;;;;;;;;;;23.20;59.40;;;;;;1555822;75;792;-58
2022/10/27 02:23:44;;;;;;;;;;;23.10;59.50;;;;;;1564493;75;1957;-58
2022/10/27 02:25:56;;;;;;;;;;;23.20;59.50;;;;;;1567405;75;1149;-58
2022/10/27 02:27:59;;;;;;;;;;;23.10;59.60;;;;;;1560368;75;1550;-58
2022/10/27 02:30:02;;;;;;;;;;;23.10;59.60;;;;;;1529053;76;728;-58
2022/10/27 02:32:04;;;;;;;;;;;23.10;59.60;;;;;;1565502;75;769;-58
2022/10/27 02:34:06;;;;;;;;;;;23.20;59.70;;;;;;1561733;75;734;-58
2022/10/27 02:36:08;;;;;;;;;;;23.10;59.70;;;;;;1563224;75;1140;-58
2022/10/27 02:38:10;;;;;;;;;;;23.20;59.60;;;;;;1551854;75;743;-58
2022/10/27 02:40:12;;;;;;;;;;;23.20;59.70;;;;;;1557519;75;777;-58
2022/10/27 02:42:14;;;;;;;;;;;23.10;59.70;;;;;;1553563;75;1671;-58
2022/10/27 02:44:16;;;;;;;;;;;23.20;59.60;;;;;;1566281;75;1926;-58
2022/10/27 02:46:18;;;;;;;;;;;23.30;59.50;;;;;;1562679;75;1129;-58
2022/10/27 02:48:20;;;;;;;;;;;23.20;59.20;;;;;;1565143;75;782;-58
2022/10/27 02:50:21;;;;;;;;;;;23.30;59.00;;;;;;1553014;75;922;-56
2022/10/27 02:52:23;;;;;;;;;;;23.30;58.80;;;;;;1567083;75;725;-57
2022/10/27 02:54:25;;;;;;;;;;;23.20;59.00;;;;;;1565029;75;745;-58
2022/10/27 02:56:27;;;;;;;;;;;23.20;59.30;;;;;;1573680;74;1748;-56
2022/10/27 02:58:29;;;;;;;;;;;23.20;59.40;;;;;;1565615;75;756;-58
2022/10/27 03:00:31;;;;;;;;;;;23.10;59.50;;;;;;1553137;75;835;-58
2022/10/27 03:02:33;;;;;;;;;;;23.10;59.60;;;;;;1562786;75;825;-58
2022/10/27 03:04:35;;;;;;;;;;;23.00;59.60;;;;;;1565657;75;1934;-57
2022/10/27 03:06:36;;;;;;;;;;;23.10;59.80;;;;;;1555707;75;1169;-58
2022/10/27 03:08:38;;;;;;;;;;;23.00;59.80;;;;;;1568939;75;1544;-58
2022/10/27 03:10:40;;;;;;;;;;;23.00;59.80;;;;;;1562990;75;773;-58
2022/10/27 03:12:44;;;;;;;;;;;23.10;60.00;;;;;;1549935;75;1096;-59
2022/10/27 03:14:46;;;;;;;;;;;23.00;60.00;;;;;;1563214;76;724;-58
2022/10/27 03:16:47;;;;;;;;;;;23.00;60.00;;;;;;1554221;76;1197;-56
2022/10/27 03:18:49;;;;;;;;;;;23.00;60.10;;;;;;1540451;76;758;-58
2022/10/27 03:20:51;;;;;;;;;;;23.00;60.10;;;;;;1547439;76;816;-58
2022/10/27 03:22:53;;;;;;;;;;;23.00;60.10;;;;;;1545219;75;1947;-58
2022/10/27 03:24:56;;;;;;;;;;;23.00;60.00;;;;;;1550200;76;1123;-58
2022/10/27 03:26:58;;;;;;;;;;;23.00;60.00;;;;;;1563218;76;1168;-58
2022/10/27 03:29:00;;;;;;;;;;;23.00;60.10;;;;;;1542101;75;767;-59
2022/10/27 03:31:03;;;;;;;;;;;23.00;60.10;;;;;;1553481;76;793;-58
2022/10/27 03:33:05;;;;;;;;;;;22.90;60.20;;;;;;1546689;76;1350;-58
2022/10/27 03:35:07;;;;;;;;;;;23.00;60.20;;;;;;1552378;76;748;-57
2022/10/27 03:37:09;;;;;;;;;;;22.90;60.20;;;;;;1556070;74;1588;-57
2022/10/27 03:39:11;;;;;;;;;;;22.90;60.20;;;;;;1546624;76;786;-56
2022/10/27 03:41:13;;;;;;;;;;;22.90;60.20;;;;;;1561089;76;711;-58
2022/10/27 03:43:15;;;;;;;;;;;22.90;60.30;;;;;;1555601;75;1959;-58
2022/10/27 03:45:17;;;;;;;;;;;22.90;60.30;;;;;;1561069;76;765;-58
2022/10/27 03:47:19;;;;;;;;;;;22.90;60.20;;;;;;1561401;76;1093;-59
2022/10/27 03:49:21;;;;;;;;;;;22.90;60.30;;;;;;1548619;76;776;-54
2022/10/27 03:51:22;;;;;;;;;;;22.90;60.30;;;;;;1551750;75;1554;-54
2022/10/27 03:53:24;;;;;;;;;;;22.90;60.40;;;;;;1555795;76;795;-55
2022/10/27 03:55:26;;;;;;;;;;;22.90;60.40;;;;;;1559591;76;751;-55
2022/10/27 03:57:28;;;;;;;;;;;22.90;60.40;;;;;;1561202;76;1121;-58
2022/10/27 03:59:30;;;;;;;;;;;22.90;60.40;;;;;;1551135;75;778;-58
2022/10/27 04:01:32;;;;;;;;;;;22.90;60.30;;;;;;1559691;76;853;-59
2022/10/27 04:03:34;;;;;;;;;;;23.00;60.30;;;;;;1558223;76;1944;-58
2022/10/27 04:05:36;;;;;;;;;;;23.00;60.20;;;;;;1556561;76;1543;-58
2022/10/27 04:07:38;;;;;;;;;;;23.00;60.20;;;;;;1559044;75;784;-55
2022/10/27 04:09:39;;;;;;;;;;;23.00;60.20;;;;;;1559504;76;776;-59
2022/10/27 04:11:41;;;;;;;;;;;23.00;60.10;;;;;;1549450;76;685;-58
2022/10/27 04:13:43;;;;;;;;;;;23.00;60.60;;;;;;1550848;75;1118;-58
2022/10/27 04:15:45;;;;;;;;;;;23.00;60.60;;;;;;1565798;75;1237;-56
2022/10/27 04:17:47;;;;;;;;;;;22.90;60.60;;;;;;1560124;75;778;-58
2022/10/27 04:19:49;;;;;;;;;;;22.90;60.60;;;;;;1531241;76;1546;-58
2022/10/27 04:21:51;;;;;;;;;;;23.00;60.50;;;;;;1565283;75;779;-58
2022/10/27 04:23:53;;;;;;;;;;;23.10;60.20;;;;;;1563285;75;2334;-57
2022/10/27 04:25:55;;;;;;;;;;;23.20;60.00;;;;;;1563283;75;1082;-58
2022/10/27 04:28:06;;;;;;;;;;;23.20;59.80;;;;;;1561140;75;817;-58
2022/10/27 04:30:09;;;;;;;;;;;23.20;59.70;;;;;;1563665;75;720;-59
2022/10/27 04:32:10;;;;;;;;;;;23.20;59.60;;;;;;1521774;77;744;-59
2022/10/27 04:34:12;;;;;;;;;;;23.30;59.50;;;;;;1499349;78;1351;-58
2022/10/27 04:36:14;;;;;;;;;;;23.30;59.50;;;;;;1492870;78;1164;-58
2022/10/27 04:38:16;;;;;;;;;;;23.30;59.50;;;;;;1525373;76;738;-57
2022/10/27 04:40:18;;;;;;;;;;;23.30;59.50;;;;;;1506780;77;756;-56
2022/10/27 04:42:20;;;;;;;;;;;23.30;59.40;;;;;;1501037;77;738;-58
2022/10/27 04:44:22;;;;;;;;;;;23.30;58.90;;;;;;1533515;77;1959;-59
2022/10/27 04:46:23;;;;;;;;;;;23.40;58.90;;;;;;1498159;79;1190;-59
2022/10/27 04:48:25;;;;;;;;;;;23.40;58.90;;;;;;1490463;79;1590;-59
2022/10/27 04:50:27;;;;;;;;;;;23.30;58.90;;;;;;1568768;75;768;-59
2022/10/27 04:52:29;;;;;;;;;;;23.20;59.30;;;;;;1556634;75;637;-56
2022/10/27 04:54:31;;;;;;;;;;;23.20;59.40;;;;;;1567446;75;756;-55
2022/10/27 04:56:33;;;;;;;;;;;23.10;59.80;;;;;;1562773;75;1158;-59
2022/10/27 04:58:35;;;;;;;;;;;23.10;60.00;;;;;;1558262;75;738;-60
2022/10/27 05:00:36;;;;;;;;;;;23.10;59.90;;;;;;1555440;75;773;-58
2022/10/27 05:02:38;;;;;;;;;;;23.10;60.20;;;;;;1575236;74;1608;-58
2022/10/27 05:04:40;;;;;;;;;;;23.00;60.20;;;;;;1560518;75;1940;-58
2022/10/27 05:06:42;;;;;;;;;;;23.10;60.20;;;;;;1564110;75;1165;-56
2022/10/27 05:08:44;;;;;;;;;;;23.20;59.70;;;;;;1558812;75;781;-60
2022/10/27 05:10:46;;;;;;;;;;;23.20;59.60;;;;;;1552544;75;716;-57
2022/10/27 05:12:48;;;;;;;;;;;23.20;59.50;;;;;;1561091;75;1083;-59
2022/10/27 05:14:50;;;;;;;;;;;23.20;59.40;;;;;;1499468;78;688;-59
2022/10/27 05:16:52;;;;;;;;;;;23.10;59.60;;;;;;1499864;78;1487;-58
2022/10/27 05:18:54;;;;;;;;;;;23.20;59.60;;;;;;1534245;76;705;-59
2022/10/27 05:20:56;;;;;;;;;;;23.20;59.40;;;;;;1536406;76;722;-57
2022/10/27 05:22:57;;;;;;;;;;;23.30;59.10;;;;;;1531686;76;670;-57
2022/10/27 05:24:59;;;;;;;;;;;23.40;58.80;;;;;;1535175;76;1951;-59
2022/10/27 05:27:01;;;;;;;;;;;23.50;58.70;;;;;;1535738;76;1139;-60
2022/10/27 05:29:03;;;;;;;;;;;23.50;58.70;;;;;;1530874;76;696;-59
2022/10/27 05:31:05;;;;;;;;;;;23.40;58.50;;;;;;1537986;76;1671;-61
2022/10/27 05:33:07;;;;;;;;;;;23.40;58.40;;;;;;1533602;76;779;-60
2022/10/27 05:35:09;;;;;;;;;;;23.30;58.90;;;;;;1537717;76;692;-59
2022/10/27 05:37:11;;;;;;;;;;;23.20;59.30;;;;;;1536609;76;1134;-59
2022/10/27 05:39:13;;;;;;;;;;;23.10;59.60;;;;;;1532251;76;788;-57
2022/10/27 05:41:14;;;;;;;;;;;23.20;59.60;;;;;;1535220;76;730;-60
2022/10/27 05:43:16;;;;;;;;;;;23.20;59.20;;;;;;1527747;76;817;-60
2022/10/27 05:45:18;;;;;;;;;;;23.30;58.80;;;;;;1535802;76;1955;-56
2022/10/27 05:47:20;;;;;;;;;;;23.40;58.60;;;;;;1539081;76;1071;-60
2022/10/27 05:49:22;;;;;;;;;;;23.50;58.50;;;;;;1542338;76;892;-56
2022/10/27 05:51:24;;;;;;;;;;;23.40;58.40;;;;;;1535505;76;737;-58
2022/10/27 05:53:26;;;;;;;;;;;23.40;58.30;;;;;;1525367;76;750;-59
2022/10/27 05:55:28;;;;;;;;;;;23.50;58.50;;;;;;1539349;76;796;-56
2022/10/27 05:57:30;;;;;;;;;;;23.40;58.40;;;;;;1503002;77;1533;-58
2022/10/27 05:59:31;;;;;;;;;;;23.30;58.40;;;;;;1473406;79;776;-61
2022/10/27 06:01:33;;;;;;;;;;;23.30;58.40;;;;;;1497052;78;691;-59
2022/10/27 06:03:35;;;;;;;;;;;23.30;58.50;;;;;;1499585;78;763;-60
2022/10/27 06:05:37;;;;;;;;;;;23.30;58.60;;;;;;1467118;79;1954;-59
2022/10/27 06:07:39;;;;;;;;;;;23.20;58.60;;;;;;1536472;76;715;-60
2022/10/27 06:09:41;;;;;;;;;;;23.20;58.70;;;;;;1541398;76;740;-59
2022/10/27 06:11:43;;;;;;;;;;;23.20;58.80;;;;;;1539961;76;1522;-60
2022/10/27 06:13:45;;;;;;;;;;;23.20;58.90;;;;;;1548077;75;1141;-59
2022/10/27 06:15:46;;;;;;;;;;;23.20;58.90;;;;;;1570124;75;1205;-59
2022/10/27 06:17:50;;;;;;;;;;;23.20;58.90;;;;;;1554819;75;735;-60
2022/10/27 06:19:52;;;;;;;;;;;23.20;58.90;;;;;;1569915;75;787;-60
2022/10/27 06:21:54;;;;;;;;;;;23.20;59.00;;;;;;1569181;75;730;-59
2022/10/27 06:23:55;;;;;;;;;;;23.10;59.20;;;;;;1556219;75;1979;-60
2022/10/27 06:25:57;;;;;;;;;;;23.20;59.20;;;;;;1569774;74;1525;-60
2022/10/27 06:27:59;;;;;;;;;;;23.10;59.20;;;;;;1554090;75;675;-61
2022/10/27 06:30:01;;;;;;;;;;;23.10;59.30;;;;;;1565939;75;787;-60
2022/10/27 06:32:03;;;;;;;;;;;23.00;59.30;;;;;;1568918;75;676;-60
2022/10/27 06:34:05;;;;;;;;;;;23.10;59.40;;;;;;1565753;75;683;-59
2022/10/27 06:36:07;;;;;;;;;;;23.10;59.40;;;;;;1568608;75;1150;-60
2022/10/27 06:38:15;;;;;;;;;;;23.00;59.40;;;;;;1566512;75;809;-60
2022/10/27 06:40:13;;;;;;;;;;;23.00;59.40;;;;;;1561812;75;1685;-59
2022/10/27 06:42:15;;;;;;;;;;;23.00;59.40;;;;;;1574446;75;836;-60
2022/10/27 06:44:17;;;;;;;;;;;23.00;59.40;;;;;;1563677;75;1947;-60
2022/10/27 06:46:19;;;;;;;;;;;23.00;59.40;;;;;;1565130;75;1137;-60
2022/10/27 06:48:21;;;;;;;;;;;23.00;59.40;;;;;;1556206;75;782;-60
2022/10/27 06:50:23;;;;;;;;;;;23.00;59.40;;;;;;1571478;75;698;-60
2022/10/27 06:52:25;;;;;;;;;;;22.90;59.40;;;;;;1567505;75;746;-60
2022/10/27 06:54:27;;;;;;;;;;;23.00;59.50;;;;;;1566881;75;1348;-59
2022/10/27 06:56:29;;;;;;;;;;;23.00;59.50;;;;;;1563467;75;1138;-60
2022/10/27 06:58:33;;;;;;;;;;;23.00;59.40;;;;;;1570251;75;774;-60
2022/10/27 07:00:36;;;;;;;;;;;23.00;59.50;;;;;;1568316;75;1645;-60
2022/10/27 07:02:38;;;;;;;;;;;22.90;59.50;;;;;;1563408;75;692;-59
2022/10/27 07:04:40;;;;;;;;;;;23.00;59.50;;;;;;1561684;75;1927;-61
2022/10/27 07:06:42;;;;;;;;;;;23.00;59.40;;;;;;1558412;75;1190;-60
2022/10/27 07:08:44;;;;;;;;;;;22.90;59.40;;;;;;1567028;74;1564;-60
2022/10/27 07:10:45;;;;;;;;;;;23.00;59.40;;;;;;1573762;75;708;-59
2022/10/27 07:12:55;;;;;;;;;;;23.00;59.40;;;;;;1554975;75;787;-60
2022/10/27 07:14:57;;;;;;;;;;;23.00;59.40;;;;;;1569480;75;2072;-60
2022/10/27 07:16:59;;;;;;;;;;;23.00;59.40;;;;;;1566043;75;1184;-60
2022/10/27 07:19:01;;;;;;;;;;;23.00;59.40;;;;;;1572200;75;705;-59
2022/10/27 07:21:03;;;;;;;;;;;23.00;59.50;;;;;;1568871;75;732;-60
2022/10/27 07:23:05;;;;;;;;;;;22.90;59.50;;;;;;1567443;75;1553;-59
2022/10/27 07:25:07;;;;;;;;;;;22.90;59.40;;;;;;1565660;75;1928;-60
2022/10/27 07:27:09;;;;;;;;;;;23.00;59.40;;;;;;1563238;75;1142;-60
2022/10/27 07:29:11;;;;;;;;;;;22.90;59.50;;;;;;1568637;75;779;-60
2022/10/27 07:31:13;;;;;;;;;;;22.90;59.50;;;;;;1571771;75;752;-59
2022/10/27 07:33:15;;;;;;;;;;;22.90;59.30;;;;;;1569687;75;746;-60
2022/10/27 07:35:17;;;;;;;;;;;23.00;59.40;;;;;;1566031;75;714;-60
2022/10/27 07:37:18;;;;;;;;;;;23.00;59.40;;;;;;1564402;75;1593;-60
2022/10/27 07:39:20;;;;;;;;;;;22.90;59.40;;;;;;1573421;75;753;-60
2022/10/27 07:41:22;;;;;;;;;;;23.00;59.30;;;;;;1562245;75;753;-60
2022/10/27 07:43:24;;;;;;;;;;;23.00;59.20;;;;;;1567458;75;806;-60
2022/10/27 07:45:26;;;;;;;;;;;23.10;59.00;;;;;;1572334;75;1938;-60
2022/10/27 07:47:28;;;;;;;;;;;23.10;58.80;;;;;;1560175;75;1197;-60
2022/10/27 07:49:30;;;;;;;;;;;23.10;58.70;;;;;;1551950;75;789;-60
2022/10/27 07:51:32;;;;;;;;;;;23.10;58.60;;;;;;1567627;74;1498;-59
2022/10/27 07:53:34;;;;;;;;;;;23.20;58.50;;;;;;1569430;75;747;-61
2022/10/27 07:55:36;;;;;;;;;;;23.10;58.50;;;;;;1557366;75;1141;-60
2022/10/27 07:57:38;;;;;;;;;;;23.10;58.60;;;;;;1569021;75;675;-60
2022/10/27 07:59:40;;;;;;;;;;;23.10;58.60;;;;;;1559483;75;706;-60
2022/10/27 08:01:42;;;;;;;;;;;23.10;58.60;;;;;;1553814;75;885;-60
2022/10/27 08:03:44;;;;;;;;;;;23.10;58.70;;;;;;1560813;75;665;-60
2022/10/27 08:05:45;;;;;;;;;;;23.10;58.80;;;;;;1561727;75;1938;-60
2022/10/27 08:07:47;;;;;;;;;;;23.10;58.70;;;;;;1566416;75;717;-59
2022/10/27 08:09:49;;;;;;;;;;;23.10;58.70;;;;;;1557151;75;745;-59
2022/10/27 08:11:51;;;;;;;;;;;23.10;58.60;;;;;;1567340;75;764;-59
2022/10/27 08:13:53;;;;;;;;;;;23.10;58.60;;;;;;1557828;75;1008;-60
2022/10/27 08:15:57;;;;;;;;;;;23.10;58.60;;;;;;1544360;75;1179;-60
2022/10/27 08:18:01;;;;;;;;;;;23.20;58.60;;;;;;1539743;76;767;-59
2022/10/27 08:20:03;;;;;;;;;;;23.10;58.60;;;;;;1537575;76;1672;-59
2022/10/27 08:22:04;;;;;;;;;;;23.10;58.60;;;;;;1538925;76;731;-59
2022/10/27 08:24:07;;;;;;;;;;;23.20;58.60;;;;;;1540103;76;739;-61
2022/10/27 08:26:08;;;;;;;;;;;23.20;58.50;;;;;;1539431;76;1929;-59
2022/10/27 08:28:10;;;;;;;;;;;23.20;58.40;;;;;;1539496;76;786;-61
2022/10/27 08:30:12;;;;;;;;;;;23.20;58.50;;;;;;1534020;76;715;-60
2022/10/27 08:32:15;;;;;;;;;;;23.20;58.50;;;;;;1538064;76;1554;-61
2022/10/27 08:34:16;;;;;;;;;;;23.20;58.50;;;;;;1537876;76;799;-59
2022/10/27 08:36:18;;;;;;;;;;;23.20;58.40;;;;;;1540639;76;1111;-59
2022/10/27 08:38:20;;;;;;;;;;;23.20;58.40;;;;;;1542346;76;712;-58
2022/10/27 08:40:22;;;;;;;;;;;23.20;58.40;;;;;;1545541;76;725;-59
2022/10/27 08:42:26;;;;;;;;;;;23.30;58.40;;;;;;1530867;76;762;-59
2022/10/27 08:44:30;;;;;;;;;;;23.20;58.20;;;;;;1538996;76;703;-59
2022/10/27 08:46:46;;;;;;;;;;;23.20;58.20;;;;;;1540048;76;1911;-59
2022/10/27 08:48:48;;;;;;;;;;;23.30;58.30;;;;;;1553188;76;747;-58
2022/10/27 08:50:50;;;;;;;;;;;23.30;58.30;;;;;;1548217;76;723;-59
2022/10/27 08:52:53;;;;;;;;;;;23.20;58.30;;;;;;1538759;76;732;-57
2022/10/27 08:54:59;;;;;;;;;;;23.20;58.20;;;;;;1536448;76;783;-54
2022/10/27 08:57:02;;;;;;;;;;;23.20;58.10;;;;;;1537431;76;1095;-59
2022/10/27 08:59:04;;;;;;;;;;;23.20;58.10;;;;;;1541527;76;749;-56
2022/10/27 09:01:10;;;;;;;;;;;23.30;58.10;;;;;;1545393;76;1565;-59
2022/10/27 09:03:32;;;;;;;;;;;23.30;58.10;;;;;;1549427;76;725;-57
2022/10/27 09:05:38;;;;;;;;;;;23.30;58.10;;;;;;1483265;78;1951;-59
2022/10/27 09:07:44;;;;;;;;;;;23.30;58.10;;;;;;1480383;78;1890;-61
2022/10/27 09:09:55;;;;;;;;;;;23.30;58.10;;;;;;1484033;78;1626;-58
2022/10/27 09:11:59;;;;;;;;;;;23.30;58.00;;;;;;1535753;76;889;-59
2022/10/27 09:14:09;;;;;;;;;;;23.30;58.00;;;;;;1544786;76;735;-56
2022/10/27 09:16:12;;;;;;;;;;;23.30;57.90;;;;;;1554683;76;1536;-59
2022/10/27 09:18:16;;;;;;;;;;;23.30;57.80;;;;;;1557073;75;785;-61
2022/10/27 09:20:25;;;;;;;;;;;23.30;57.80;;;;;;1546014;75;728;-58
2022/10/27 09:22:27;;;;;;;;;;;23.30;57.80;;;;;;1556565;76;843;-60
2022/10/27 09:24:29;;;;;;;;;;;23.40;57.80;;;;;;1564883;76;725;-59
2022/10/27 09:26:32;;;;;;;;;;;23.40;57.70;;;;;;1552977;76;1928;-59
2022/10/27 09:28:37;;;;;;;;;;;23.30;57.60;;;;;;1554246;75;1530;-60
2022/10/27 09:30:39;;;;;;;;;;;23.40;57.60;;;;;;1562004;76;721;-61
2022/10/27 09:32:42;;;;;;;;;;;23.40;57.60;;;;;;1554623;76;727;-59
2022/10/27 09:34:45;;;;;;;;;;;23.40;57.60;;;;;;1556291;76;685;-58
2022/10/27 09:36:47;;;;;;;;;;;23.40;57.60;;;;;;1558732;76;1151;-58
2022/10/27 09:38:49;;;;;;;;;;;23.40;57.60;;;;;;1564879;75;620;-57
2022/10/27 09:40:51;;;;;;;;;;;23.50;57.60;;;;;;1558775;76;758;-60
2022/10/27 09:42:53;;;;;;;;;;;23.40;57.50;;;;;;1556167;75;1522;-58
2022/10/27 09:45:01;;;;;;;;;;;23.50;57.60;;;;;;1566787;76;873;-55
2022/10/27 09:47:03;;;;;;;;;;;23.50;57.60;;;;;;1554509;76;1920;-59
2022/10/27 09:49:05;;;;;;;;;;;23.50;57.60;;;;;;1548609;76;714;-57
2022/10/27 09:51:08;;;;;;;;;;;23.50;57.40;;;;;;1556001;76;760;-59
2022/10/27 09:53:28;;;;;;;;;;;23.50;57.40;;;;;;1559548;75;789;-58
2022/10/27 09:55:37;;;;;;;;;;;23.50;57.30;;;;;;1560558;76;1144;-56
2022/10/27 09:57:40;;;;;;;;;;;23.50;57.30;;;;;;1548404;74;1589;-60
2022/10/27 09:59:41;;;;;;;;;;;23.40;57.20;;;;;;1565291;76;791;-57
2022/10/27 10:01:46;;;;;;;;;;;23.30;57.40;;;;;;1562692;75;756;-59
2022/10/27 10:03:49;;;;;;;;;;;23.30;57.80;;;;;;1553627;75;691;-59
2022/10/27 10:05:59;;;;;;;;;;;23.40;57.70;;;;;;1544734;76;1966;-61
2022/10/27 10:08:11;;;;;;;;;;;23.50;57.60;;;;;;1562266;76;1850;-60
2022/10/27 10:10:20;;;;;;;;;;;23.50;57.40;;;;;;1552375;75;776;-59
2022/10/27 10:12:23;;;;;;;;;;;23.50;57.40;;;;;;1561143;75;1547;-61
2022/10/27 10:14:25;;;;;;;;;;;23.60;57.30;;;;;;1560590;76;753;-60
2022/10/27 10:16:29;;;;;;;;;;;23.60;57.30;;;;;;1564028;76;1083;-59
2022/10/27 10:18:31;;;;;;;;;;;23.60;57.20;;;;;;1557449;75;764;-60
2022/10/27 10:20:38;;;;;;;;;;;23.70;57.30;;;;;;1559312;75;768;-59
2022/10/27 10:22:39;;;;;;;;;;;23.70;57.20;;;;;;1556944;75;722;-59
2022/10/27 10:24:41;;;;;;;;;;;23.70;57.10;;;;;;1559142;76;1499;-60
2022/10/27 10:26:47;;;;;;;;;;;23.70;57.10;;;;;;1527682;77;1940;-60
2022/10/27 10:28:53;;;;;;;;;;;23.70;56.90;;;;;;1554417;75;702;-60
2022/10/27 10:30:53;;;;;;;;;;;23.70;56.90;;;;;;1561623;75;1482;-60
2022/10/27 10:32:56;;;;;;;;;;;23.70;56.80;;;;;;1561557;76;798;-61
2022/10/27 10:34:59;;;;;;;;;;;23.70;56.70;;;;;;1556705;76;794;-59
2022/10/27 10:37:01;;;;;;;;;;;23.70;56.70;;;;;;1558585;75;1145;-60
2022/10/27 10:39:05;;;;;;;;;;;23.80;56.60;;;;;;1560465;74;1455;-60
2022/10/27 10:41:14;;;;;;;;;;;23.80;56.60;;;;;;1557215;76;1443;-59
2022/10/27 10:43:16;;;;;;;;;;;23.80;56.50;;;;;;1559267;75;913;-60
2022/10/27 10:45:19;;;;;;;;;;;23.70;56.50;;;;;;1559262;76;745;-60
2022/10/27 10:47:25;;;;;;;;;;;23.70;56.50;;;;;;1559549;76;1895;-60
2022/10/27 10:49:30;;;;;;;;;;;23.80;56.40;;;;;;1555929;76;767;-61
2022/10/27 10:51:33;;;;;;;;;;;23.80;56.40;;;;;;1557723;76;871;-59
2022/10/27 10:53:42;;;;;;;;;;;23.80;56.40;;;;;;1561667;76;1511;-59
2022/10/27 10:55:44;;;;;;;;;;;23.70;56.30;;;;;;1531712;77;1146;-59
2022/10/27 10:57:47;;;;;;;;;;;23.70;56.40;;;;;;1502390;78;742;-61
2022/10/27 10:59:49;;;;;;;;;;;23.70;56.40;;;;;;1527301;77;761;-61
2022/10/27 11:02:01;;;;;;;;;;;23.70;56.40;;;;;;1527487;77;754;-60
2022/10/27 11:04:03;;;;;;;;;;;23.70;56.30;;;;;;1504243;77;1059;-60
2022/10/27 11:06:05;;;;;;;;;;;23.70;56.30;;;;;;1532426;76;1951;-60
2022/10/27 11:08:08;;;;;;;;;;;23.70;56.30;;;;;;1525860;77;1585;-60
2022/10/27 11:10:12;;;;;;;;;;;23.70;56.30;;;;;;1529496;77;1899;-60
2022/10/27 11:12:18;;;;;;;;;;;23.80;56.30;;;;;;1502727;78;780;-60
2022/10/27 11:14:20;;;;;;;;;;;23.70;56.30;;;;;;1501369;77;1911;-60
2022/10/27 11:16:22;;;;;;;;;;;23.70;56.30;;;;;;1493569;77;1189;-60
2022/10/27 11:18:29;;;;;;;;;;;23.70;56.30;;;;;;1480326;80;787;-60
2022/10/27 11:20:32;;;;;;;;;;;23.70;56.30;;;;;;1535149;76;720;-61
2022/10/27 11:22:34;;;;;;;;;;;23.70;56.30;;;;;;1531472;76;1428;-61
2022/10/27 11:24:46;;;;;;;;;;;23.70;56.30;;;;;;1536329;77;794;-60
2022/10/27 11:27:05;;;;;;;;;;;23.70;56.30;;;;;;1528823;77;1959;-60
2022/10/27 11:29:11;;;;;;;;;;;23.60;56.30;;;;;;1535776;76;788;-60
2022/10/27 11:31:17;;;;;;;;;;;23.60;56.30;;;;;;1538484;77;750;-60
2022/10/27 11:33:27;;;;;;;;;;;23.60;56.30;;;;;;1532465;77;727;-61
2022/10/27 11:35:31;;;;;;;;;;;23.70;56.20;;;;;;1532222;76;1583;-60
2022/10/27 11:37:34;;;;;;;;;;;23.70;56.20;;;;;;1537728;76;1852;-59
2022/10/27 11:39:49;;;;;;;;;;;23.70;56.10;;;;;;1533635;77;748;-59
2022/10/27 11:41:56;;;;;;;;;;;23.70;56.00;;;;;;1534597;76;753;-61
2022/10/27 11:44:18;;;;;;;;;;;23.70;56.10;;;;;;1502870;77;1034;-61
2022/10/27 11:46:20;;;;;;;;;;;23.70;56.00;;;;;;1536762;77;1994;-59
2022/10/27 11:48:23;;;;;;;;;;;23.70;56.00;;;;;;1535329;76;730;-61
2022/10/27 11:50:30;;;;;;;;;;;23.70;56.00;;;;;;1537860;77;1521;-59
2022/10/27 11:52:36;;;;;;;;;;;23.70;55.90;;;;;;1537322;76;798;-60
2022/10/27 11:54:38;;;;;;;;;;;23.60;55.70;;;;;;1536450;77;767;-61
2022/10/27 11:56:44;;;;;;;;;;;23.70;55.80;;;;;;1530460;77;1143;-59
2022/10/27 11:58:48;;;;;;;;;;;23.70;55.80;;;;;;1531465;77;798;-60
2022/10/27 12:00:54;;;;;;;;;;;23.70;55.80;;;;;;1533134;77;1908;-61
2022/10/27 12:03:01;;;;;;;;;;;23.70;55.80;;;;;;1529950;76;784;-59
2022/10/27 12:05:13;;;;;;;;;;;23.70;55.80;;;;;;1538827;77;752;-58
2022/10/27 12:07:19;;;;;;;;;;;23.70;55.90;;;;;;1538092;77;1944;-60
2022/10/27 12:09:41;;;;;;;;;;;23.70;55.80;;;;;;1526461;77;2183;-59
2022/10/27 12:12:00;;;;;;;;;;;23.70;55.80;;;;;;1466143;79;1868;-60
2022/10/27 12:14:15;;;;;;;;;;;23.60;55.80;;;;;;1477784;79;1990;-60
2022/10/27 12:16:34;;;;;;;;;;;23.60;55.90;;;;;;1494807;78;1214;-60
2022/10/27 12:18:43;;;;;;;;;;;23.60;55.90;;;;;;1430181;82;1714;-60